sensor_id;sensor_type;location;lat;lon;timestamp;P1;P2;P0
30342;PMS5003;17145;49.902;8.680;2023-03-19T00:02:08;5;5;
30342;PMS5003;17145;49.902;8.680;2023-03-19T00:04:35;5;5;
30342;PMS5003;17145;49.902;8.680;2023-03-19T00:07:03;6;6;
30342;PMS5003;17145;49.902;8.680;2023-03-19T00:09:30;8;5;
30342;PMS5003;17145;49.902;8.680;2023-03-19T00:11:58;5;5;
30342;PMS5003;17145;49.902;8.680;2023-03-19T00:14:25;5;5;
30342;PMS5003;17145;49.902;8.680;2023-03-19T00:16:53;6;6;
30342;PMS5003;17145;49.902;8.680;2023-03-19T00:19:20;5;5;
30342;PMS5003;17145;49.902;8.680;2023-03-19T00:21:47;6;6;
30342;PMS5003;17145;49.902;8.680;2023-03-19T00:24:15;5;5;
30342;PMS5003;17145;49.902;8.680;2023-03-19T00:26:42;6;6;
30342;PMS5003;17145;49.902;8.680;2023-03-19T00:29:10;7;6;
30342;PMS5003;17145;49.902;8.680;2023-03-19T00:31:37;5;5;
30342;PMS5003;17145;49.902;8.680;2023-03-19T00:34:05;6;6;
30342;PMS5003;17145;49.902;8.680;2023-03-19T00:36:33;5;5;
30342;PMS5003;17145;49.902;8.680;2023-03-19T00:39:01;4;4;
30342;PMS5003;17145;49.902;8.680;2023-03-19T00:41:29;4;4;
30342;PMS5003;17145;49.902;8.680;2023-03-19T00:43:57;5;5;
30342;PMS5003;17145;49.902;8.680;2023-03-19T00:46:24;5;5;
30342;PMS5003;17145;49.902;8.680;2023-03-19T00:48:52;5;5;
30342;PMS5003;17145;49.902;8.680;2023-03-19T00:51:20;4;4;
30342;PMS5003;17145;49.902;8.680;2023-03-19T00:53:49;6;5;
30342;PMS5003;17145;49.902;8.680;2023-03-19T00:56:17;4;4;
30342;PMS5003;17145;49.902;8.680;2023-03-19T00:58:45;5;5;
30342;PMS5003;17145;49.902;8.680;2023-03-19T01:01:14;4;4;
30342;PMS5003;17145;49.902;8.680;2023-03-19T01:03:42;6;4;
30342;PMS5003;17145;49.902;8.680;2023-03-19T01:06:10;3;3;
30342;PMS5003;17145;49.902;8.680;2023-03-19T01:08:38;5;3;
30342;PMS5003;17145;49.902;8.680;2023-03-19T01:11:06;3;3;
30342;PMS5003;17145;49.902;8.680;2023-03-19T01:13:35;3;3;
30342;PMS5003;17145;49.902;8.680;2023-03-19T01:16:03;3;3;
30342;PMS5003;17145;49.902;8.680;2023-03-19T01:18:31;5;4;
30342;PMS5003;17145;49.902;8.680;2023-03-19T01:20:59;6;6;
30342;PMS5003;17145;49.902;8.680;2023-03-19T01:23:26;7;7;
30342;PMS5003;17145;49.902;8.680;2023-03-19T01:25:54;8;8;
30342;PMS5003;17145;49.902;8.680;2023-03-19T01:28:22;6;6;
30342;PMS5003;17145;49.902;8.680;2023-03-19T01:30:49;4;4;
30342;PMS5003;17145;49.902;8.680;2023-03-19T01:33:17;3;2;
30342;PMS5003;17145;49.902;8.680;2023-03-19T01:35:44;3;2;
30342;PMS5003;17145;49.902;8.680;2023-03-19T01:38:12;3;3;
30342;PMS5003;17145;49.902;8.680;2023-03-19T01:40:42;3;3;
30342;PMS5003;17145;49.902;8.680;2023-03-19T01:43:11;2;2;
30342;PMS5003;17145;49.902;8.680;2023-03-19T01:45:42;3;2;
30342;PMS5003;17145;49.902;8.680;2023-03-19T01:48:15;3;3;
30342;PMS5003;17145;49.902;8.680;2023-03-19T01:50:46;2;2;
30342;PMS5003;17145;49.902;8.680;2023-03-19T01:53:16;3;3;
30342;PMS5003;17145;49.902;8.680;2023-03-19T01:55:44;3;3;
30342;PMS5003;17145;49.902;8.680;2023-03-19T01:58:13;3;3;
30342;PMS5003;17145;49.902;8.680;2023-03-19T02:00:41;2;2;
30342;PMS5003;17145;49.902;8.680;2023-03-19T02:03:09;3;3;
30342;PMS5003;17145;49.902;8.680;2023-03-19T02:05:36;4;3;
30342;PMS5003;17145;49.902;8.680;2023-03-19T02:08:08;5;4;
30342;PMS5003;17145;49.902;8.680;2023-03-19T02:10:39;3;3;
30342;PMS5003;17145;49.902;8.680;2023-03-19T02:13:09;5;5;
30342;PMS5003;17145;49.902;8.680;2023-03-19T02:15:36;5;4;
30342;PMS5003;17145;49.902;8.680;2023-03-19T02:18:04;3;3;
30342;PMS5003;17145;49.902;8.680;2023-03-19T02:20:33;3;3;
30342;PMS5003;17145;49.902;8.680;2023-03-19T02:23:08;2;2;
30342;PMS5003;17145;49.902;8.680;2023-03-19T02:28:23;2;2;
30342;PMS5003;17145;49.902;8.680;2023-03-19T02:30:51;3;3;
30342;PMS5003;17145;49.902;8.680;2023-03-19T02:33:19;2;2;
30342;PMS5003;17145;49.902;8.680;2023-03-19T02:35:47;3;3;
30342;PMS5003;17145;49.902;8.680;2023-03-19T02:38:17;3;3;
30342;PMS5003;17145;49.902;8.680;2023-03-19T02:40:46;3;3;
30342;PMS5003;17145;49.902;8.680;2023-03-19T02:43:19;3;3;
30342;PMS5003;17145;49.902;8.680;2023-03-19T02:45:47;2;2;
30342;PMS5003;17145;49.902;8.680;2023-03-19T02:48:15;2;2;
30342;PMS5003;17145;49.902;8.680;2023-03-19T02:50:42;5;5;
30342;PMS5003;17145;49.902;8.680;2023-03-19T02:53:10;3;3;
30342;PMS5003;17145;49.902;8.680;2023-03-19T02:55:38;3;3;
30342;PMS5003;17145;49.902;8.680;2023-03-19T02:58:05;3;3;
30342;PMS5003;17145;49.902;8.680;2023-03-19T03:00:33;3;3;
30342;PMS5003;17145;49.902;8.680;2023-03-19T03:03:01;3;2;
30342;PMS5003;17145;49.902;8.680;2023-03-19T03:05:28;2;2;
30342;PMS5003;17145;49.902;8.680;2023-03-19T03:07:56;2;2;
30342;PMS5003;17145;49.902;8.680;2023-03-19T03:10:23;3;3;
30342;PMS5003;17145;49.902;8.680;2023-03-19T03:12:51;3;3;
30342;PMS5003;17145;49.902;8.680;2023-03-19T03:15:18;3;2;
30342;PMS5003;17145;49.902;8.680;2023-03-19T03:17:45;2;2;
30342;PMS5003;17145;49.902;8.680;2023-03-19T03:20:14;2;2;
30342;PMS5003;17145;49.902;8.680;2023-03-19T03:22:43;4;4;
30342;PMS5003;17145;49.902;8.680;2023-03-19T03:25:10;6;6;
30342;PMS5003;17145;49.902;8.680;2023-03-19T03:27:38;4;4;
30342;PMS5003;17145;49.902;8.680;2023-03-19T03:30:06;5;5;
30342;PMS5003;17145;49.902;8.680;2023-03-19T03:32:35;3;3;
30342;PMS5003;17145;49.902;8.680;2023-03-19T03:35:03;3;3;
30342;PMS5003;17145;49.902;8.680;2023-03-19T03:37:32;2;2;
30342;PMS5003;17145;49.902;8.680;2023-03-19T03:39:59;2;2;
30342;PMS5003;17145;49.902;8.680;2023-03-19T03:42:26;3;3;
30342;PMS5003;17145;49.902;8.680;2023-03-19T03:44:54;2;2;
30342;PMS5003;17145;49.902;8.680;2023-03-19T03:47:21;2;2;
30342;PMS5003;17145;49.902;8.680;2023-03-19T03:49:49;4;4;
30342;PMS5003;17145;49.902;8.680;2023-03-19T03:52:16;3;3;
30342;PMS5003;17145;49.902;8.680;2023-03-19T03:54:43;4;4;
30342;PMS5003;17145;49.902;8.680;2023-03-19T03:57:11;7;7;
30342;PMS5003;17145;49.902;8.680;2023-03-19T03:59:38;3;3;
30342;PMS5003;17145;49.902;8.680;2023-03-19T04:02:05;3;3;
30342;PMS5003;17145;49.902;8.680;2023-03-19T04:04:33;3;3;
30342;PMS5003;17145;49.902;8.680;2023-03-19T04:07:00;3;3;
30342;PMS5003;17145;49.902;8.680;2023-03-19T04:09:27;3;2;
30342;PMS5003;17145;49.902;8.680;2023-03-19T04:11:55;4;4;
30342;PMS5003;17145;49.902;8.680;2023-03-19T04:14:22;3;3;
30342;PMS5003;17145;49.902;8.680;2023-03-19T04:16:50;3;3;
30342;PMS5003;17145;49.902;8.680;2023-03-19T04:19:18;3;3;
30342;PMS5003;17145;49.902;8.680;2023-03-19T04:21:45;3;3;
30342;PMS5003;17145;49.902;8.680;2023-03-19T04:24:12;3;3;
30342;PMS5003;17145;49.902;8.680;2023-03-19T04:26:40;3;3;
30342;PMS5003;17145;49.902;8.680;2023-03-19T04:29:07;3;3;
30342;PMS5003;17145;49.902;8.680;2023-03-19T04:31:35;5;5;
30342;PMS5003;17145;49.902;8.680;2023-03-19T04:34:02;5;4;
30342;PMS5003;17145;49.902;8.680;2023-03-19T04:36:30;6;5;
30342;PMS5003;17145;49.902;8.680;2023-03-19T04:38:57;5;5;
30342;PMS5003;17145;49.902;8.680;2023-03-19T04:41:25;3;3;
30342;PMS5003;17145;49.902;8.680;2023-03-19T04:43:52;5;5;
30342;PMS5003;17145;49.902;8.680;2023-03-19T04:46:20;5;5;
30342;PMS5003;17145;49.902;8.680;2023-03-19T04:48:47;5;4;
30342;PMS5003;17145;49.902;8.680;2023-03-19T04:51:15;5;5;
30342;PMS5003;17145;49.902;8.680;2023-03-19T04:53:42;5;4;
30342;PMS5003;17145;49.902;8.680;2023-03-19T04:56:09;6;5;
30342;PMS5003;17145;49.902;8.680;2023-03-19T04:58:37;4;4;
30342;PMS5003;17145;49.902;8.680;2023-03-19T05:01:04;7;6;
30342;PMS5003;17145;49.902;8.680;2023-03-19T05:03:31;5;5;
30342;PMS5003;17145;49.902;8.680;2023-03-19T05:05:59;5;5;
30342;PMS5003;17145;49.902;8.680;2023-03-19T05:08:26;7;7;
30342;PMS5003;17145;49.902;8.680;2023-03-19T05:10:54;10;8;
30342;PMS5003;17145;49.902;8.680;2023-03-19T05:13:22;5;5;
30342;PMS5003;17145;49.902;8.680;2023-03-19T05:15:51;5;5;
30342;PMS5003;17145;49.902;8.680;2023-03-19T05:18:19;5;5;
30342;PMS5003;17145;49.902;8.680;2023-03-19T05:20:47;5;5;
30342;PMS5003;17145;49.902;8.680;2023-03-19T05:23:14;6;6;
30342;PMS5003;17145;49.902;8.680;2023-03-19T05:25:42;8;8;
30342;PMS5003;17145;49.902;8.680;2023-03-19T05:28:09;6;6;
30342;PMS5003;17145;49.902;8.680;2023-03-19T05:30:37;5;4;
30342;PMS5003;17145;49.902;8.680;2023-03-19T05:33:04;5;4;
30342;PMS5003;17145;49.902;8.680;2023-03-19T05:35:32;5;5;
30342;PMS5003;17145;49.902;8.680;2023-03-19T05:37:59;5;5;
30342;PMS5003;17145;49.902;8.680;2023-03-19T05:40:27;5;4;
30342;PMS5003;17145;49.902;8.680;2023-03-19T05:42:55;7;6;
30342;PMS5003;17145;49.902;8.680;2023-03-19T05:45:22;6;6;
30342;PMS5003;17145;49.902;8.680;2023-03-19T05:47:50;6;6;
30342;PMS5003;17145;49.902;8.680;2023-03-19T05:50:17;5;5;
30342;PMS5003;17145;49.902;8.680;2023-03-19T05:52:45;4;4;
30342;PMS5003;17145;49.902;8.680;2023-03-19T05:55:12;5;5;
30342;PMS5003;17145;49.902;8.680;2023-03-19T05:57:41;6;6;
30342;PMS5003;17145;49.902;8.680;2023-03-19T06:00:08;5;5;
30342;PMS5003;17145;49.902;8.680;2023-03-19T06:02:37;6;5;
30342;PMS5003;17145;49.902;8.680;2023-03-19T06:05:05;6;6;
30342;PMS5003;17145;49.902;8.680;2023-03-19T06:07:33;4;4;
30342;PMS5003;17145;49.902;8.680;2023-03-19T06:10:00;5;5;
30342;PMS5003;17145;49.902;8.680;2023-03-19T06:12:27;6;6;
30342;PMS5003;17145;49.902;8.680;2023-03-19T06:14:55;5;5;
30342;PMS5003;17145;49.902;8.680;2023-03-19T06:17:23;10;9;
30342;PMS5003;17145;49.902;8.680;2023-03-19T06:19:50;16;16;
30342;PMS5003;17145;49.902;8.680;2023-03-19T06:22:18;50;50;
30342;PMS5003;17145;49.902;8.680;2023-03-19T06:24:45;78;78;
30342;PMS5003;17145;49.902;8.680;2023-03-19T06:27:12;134;133;
30342;PMS5003;17145;49.902;8.680;2023-03-19T06:29:40;16;14;
30342;PMS5003;17145;49.902;8.680;2023-03-19T06:32:07;11;10;
30342;PMS5003;17145;49.902;8.680;2023-03-19T06:34:35;11;10;
30342;PMS5003;17145;49.902;8.680;2023-03-19T06:37:02;7;7;
30342;PMS5003;17145;49.902;8.680;2023-03-19T06:39:30;8;8;
30342;PMS5003;17145;49.902;8.680;2023-03-19T06:41:57;7;7;
30342;PMS5003;17145;49.902;8.680;2023-03-19T06:44:25;9;9;
30342;PMS5003;17145;49.902;8.680;2023-03-19T06:46:52;5;5;
30342;PMS5003;17145;49.902;8.680;2023-03-19T06:49:19;8;7;
30342;PMS5003;17145;49.902;8.680;2023-03-19T06:51:47;9;7;
30342;PMS5003;17145;49.902;8.680;2023-03-19T06:54:14;10;8;
30342;PMS5003;17145;49.902;8.680;2023-03-19T06:56:42;10;10;
30342;PMS5003;17145;49.902;8.680;2023-03-19T07:01:44;8;8;
30342;PMS5003;17145;49.902;8.680;2023-03-19T07:04:12;8;8;
30342;PMS5003;17145;49.902;8.680;2023-03-19T07:06:39;9;8;
30342;PMS5003;17145;49.902;8.680;2023-03-19T07:09:07;8;7;
30342;PMS5003;17145;49.902;8.680;2023-03-19T07:11:35;5;5;
30342;PMS5003;17145;49.902;8.680;2023-03-19T07:14:04;10;9;
30342;PMS5003;17145;49.902;8.680;2023-03-19T07:16:32;10;8;
30342;PMS5003;17145;49.902;8.680;2023-03-19T07:19:00;10;10;
30342;PMS5003;17145;49.902;8.680;2023-03-19T07:21:28;8;7;
30342;PMS5003;17145;49.902;8.680;2023-03-19T07:23:55;10;10;
30342;PMS5003;17145;49.902;8.680;2023-03-19T07:26:23;10;9;
30342;PMS5003;17145;49.902;8.680;2023-03-19T07:28:50;8;8;
30342;PMS5003;17145;49.902;8.680;2023-03-19T07:31:18;7;7;
30342;PMS5003;17145;49.902;8.680;2023-03-19T07:33:45;8;7;
30342;PMS5003;17145;49.902;8.680;2023-03-19T07:36:13;8;8;
30342;PMS5003;17145;49.902;8.680;2023-03-19T07:38:40;9;8;
30342;PMS5003;17145;49.902;8.680;2023-03-19T07:41:08;9;8;
30342;PMS5003;17145;49.902;8.680;2023-03-19T07:43:36;9;9;
30342;PMS5003;17145;49.902;8.680;2023-03-19T07:46:04;10;9;
30342;PMS5003;17145;49.902;8.680;2023-03-19T07:48:31;8;8;
30342;PMS5003;17145;49.902;8.680;2023-03-19T07:50:59;12;12;
30342;PMS5003;17145;49.902;8.680;2023-03-19T07:53:27;10;10;
30342;PMS5003;17145;49.902;8.680;2023-03-19T07:55:54;11;11;
30342;PMS5003;17145;49.902;8.680;2023-03-19T07:58:21;9;9;
30342;PMS5003;17145;49.902;8.680;2023-03-19T08:00:49;10;9;
30342;PMS5003;17145;49.902;8.680;2023-03-19T08:03:17;10;10;
30342;PMS5003;17145;49.902;8.680;2023-03-19T08:05:46;12;9;
30342;PMS5003;17145;49.902;8.680;2023-03-19T08:08:14;10;10;
30342;PMS5003;17145;49.902;8.680;2023-03-19T08:10:41;9;8;
30342;PMS5003;17145;49.902;8.680;2023-03-19T08:13:09;12;10;
30342;PMS5003;17145;49.902;8.680;2023-03-19T08:15:36;13;12;
30342;PMS5003;17145;49.902;8.680;2023-03-19T08:18:04;9;9;
30342;PMS5003;17145;49.902;8.680;2023-03-19T08:20:31;10;9;
30342;PMS5003;17145;49.902;8.680;2023-03-19T08:22:59;10;10;
30342;PMS5003;17145;49.902;8.680;2023-03-19T08:25:27;13;10;
30342;PMS5003;17145;49.902;8.680;2023-03-19T08:27:54;10;9;
30342;PMS5003;17145;49.902;8.680;2023-03-19T08:30:21;12;10;
30342;PMS5003;17145;49.902;8.680;2023-03-19T08:32:48;12;10;
30342;PMS5003;17145;49.902;8.680;2023-03-19T08:35:16;12;12;
30342;PMS5003;17145;49.902;8.680;2023-03-19T08:37:44;12;10;
30342;PMS5003;17145;49.902;8.680;2023-03-19T08:40:11;12;12;
30342;PMS5003;17145;49.902;8.680;2023-03-19T08:42:39;13;12;
30342;PMS5003;17145;49.902;8.680;2023-03-19T08:45:07;13;12;
30342;PMS5003;17145;49.902;8.680;2023-03-19T08:47:36;10;9;
30342;PMS5003;17145;49.902;8.680;2023-03-19T08:50:04;12;10;
30342;PMS5003;17145;49.902;8.680;2023-03-19T08:52:32;12;12;
30342;PMS5003;17145;49.902;8.680;2023-03-19T08:55:00;14;13;
30342;PMS5003;17145;49.902;8.680;2023-03-19T08:57:28;13;10;
30342;PMS5003;17145;49.902;8.680;2023-03-19T08:59:56;20;13;
30342;PMS5003;17145;49.902;8.680;2023-03-19T09:02:24;10;10;
30342;PMS5003;17145;49.902;8.680;2023-03-19T09:04:52;13;13;
30342;PMS5003;17145;49.902;8.680;2023-03-19T09:07:19;13;13;
30342;PMS5003;17145;49.902;8.680;2023-03-19T09:09:46;23;13;
30342;PMS5003;17145;49.902;8.680;2023-03-19T09:12:15;12;12;
30342;PMS5003;17145;49.902;8.680;2023-03-19T09:14:43;15;10;
30342;PMS5003;17145;49.902;8.680;2023-03-19T09:17:10;17;14;
30342;PMS5003;17145;49.902;8.680;2023-03-19T09:19:38;20;14;
30342;PMS5003;17145;49.902;8.680;2023-03-19T09:22:06;14;12;
30342;PMS5003;17145;49.902;8.680;2023-03-19T09:24:33;12;12;
30342;PMS5003;17145;49.902;8.680;2023-03-19T09:27:01;17;15;
30342;PMS5003;17145;49.902;8.680;2023-03-19T09:29:29;13;12;
30342;PMS5003;17145;49.902;8.680;2023-03-19T09:31:56;14;14;
30342;PMS5003;17145;49.902;8.680;2023-03-19T09:34:24;13;13;
30342;PMS5003;17145;49.902;8.680;2023-03-19T09:36:51;17;14;
30342;PMS5003;17145;49.902;8.680;2023-03-19T09:39:19;17;15;
30342;PMS5003;17145;49.902;8.680;2023-03-19T09:41:50;18;15;
30342;PMS5003;17145;49.902;8.680;2023-03-19T09:44:27;17;14;
30342;PMS5003;17145;49.902;8.680;2023-03-19T09:46:57;15;14;
30342;PMS5003;17145;49.902;8.680;2023-03-19T09:49:35;14;13;
30342;PMS5003;17145;49.902;8.680;2023-03-19T09:52:10;15;15;
30342;PMS5003;17145;49.902;8.680;2023-03-19T09:54:46;13;13;
30342;PMS5003;17145;49.902;8.680;2023-03-19T09:57:16;13;12;
30342;PMS5003;17145;49.902;8.680;2023-03-19T09:59:45;14;13;
30342;PMS5003;17145;49.902;8.680;2023-03-19T10:02:25;14;14;
30342;PMS5003;17145;49.902;8.680;2023-03-19T10:05:05;15;14;
30342;PMS5003;17145;49.902;8.680;2023-03-19T10:07:46;13;12;
30342;PMS5003;17145;49.902;8.680;2023-03-19T10:10:32;17;17;
30342;PMS5003;17145;49.902;8.680;2023-03-19T10:13:09;14;13;
30342;PMS5003;17145;49.902;8.680;2023-03-19T10:15:44;14;14;
30342;PMS5003;17145;49.902;8.680;2023-03-19T10:18:15;14;14;
30342;PMS5003;17145;49.902;8.680;2023-03-19T10:20:46;15;15;
30342;PMS5003;17145;49.902;8.680;2023-03-19T10:23:23;13;12;
30342;PMS5003;17145;49.902;8.680;2023-03-19T10:26:04;13;12;
30342;PMS5003;17145;49.902;8.680;2023-03-19T10:28:35;12;11;
30342;PMS5003;17145;49.902;8.680;2023-03-19T10:31:10;12;12;
30342;PMS5003;17145;49.902;8.680;2023-03-19T10:33:50;14;12;
30342;PMS5003;17145;49.902;8.680;2023-03-19T10:36:25;13;12;
30342;PMS5003;17145;49.902;8.680;2023-03-19T10:38:56;14;14;
30342;PMS5003;17145;49.902;8.680;2023-03-19T10:41:26;13;13;
30342;PMS5003;17145;49.902;8.680;2023-03-19T10:44:05;15;13;
30342;PMS5003;17145;49.902;8.680;2023-03-19T10:46:39;12;12;
30342;PMS5003;17145;49.902;8.680;2023-03-19T10:49:12;15;14;
30342;PMS5003;17145;49.902;8.680;2023-03-19T10:51:47;16;14;
30342;PMS5003;17145;49.902;8.680;2023-03-19T10:54:27;11;11;
30342;PMS5003;17145;49.902;8.680;2023-03-19T10:56:59;13;12;
30342;PMS5003;17145;49.902;8.680;2023-03-19T10:59:30;12;12;
30342;PMS5003;17145;49.902;8.680;2023-03-19T11:02:06;13;12;
30342;PMS5003;17145;49.902;8.680;2023-03-19T11:04:39;16;13;
30342;PMS5003;17145;49.902;8.680;2023-03-19T11:07:08;14;14;
30342;PMS5003;17145;49.902;8.680;2023-03-19T11:09:38;12;12;
30342;PMS5003;17145;49.902;8.680;2023-03-19T11:12:13;11;11;
30342;PMS5003;17145;49.902;8.680;2023-03-19T11:14:46;12;11;
30342;PMS5003;17145;49.902;8.680;2023-03-19T11:17:16;9;9;
30342;PMS5003;17145;49.902;8.680;2023-03-19T11:19:48;12;12;
30342;PMS5003;17145;49.902;8.680;2023-03-19T11:22:20;11;11;
30342;PMS5003;17145;49.902;8.680;2023-03-19T11:24:50;13;12;
30342;PMS5003;17145;49.902;8.680;2023-03-19T11:29:54;13;12;
30342;PMS5003;17145;49.902;8.680;2023-03-19T11:32:24;14;12;
30342;PMS5003;17145;49.902;8.680;2023-03-19T11:35:05;14;12;
30342;PMS5003;17145;49.902;8.680;2023-03-19T11:37:46;14;13;
30342;PMS5003;17145;49.902;8.680;2023-03-19T11:40:20;13;12;
30342;PMS5003;17145;49.902;8.680;2023-03-19T11:42:59;12;12;
30342;PMS5003;17145;49.902;8.680;2023-03-19T11:45:41;11;11;
30342;PMS5003;17145;49.902;8.680;2023-03-19T11:48:22;14;13;
30342;PMS5003;17145;49.902;8.680;2023-03-19T11:50:59;13;11;
30342;PMS5003;17145;49.902;8.680;2023-03-19T11:53:35;12;11;
30342;PMS5003;17145;49.902;8.680;2023-03-19T11:56:10;16;14;
30342;PMS5003;17145;49.902;8.680;2023-03-19T12:01:26;13;12;
30342;PMS5003;17145;49.902;8.680;2023-03-19T12:04:10;11;11;
30342;PMS5003;17145;49.902;8.680;2023-03-19T12:06:55;11;11;
30342;PMS5003;17145;49.902;8.680;2023-03-19T12:09:33;11;11;
30342;PMS5003;17145;49.902;8.680;2023-03-19T12:12:09;13;11;
30342;PMS5003;17145;49.902;8.680;2023-03-19T12:14:50;16;14;
30342;PMS5003;17145;49.902;8.680;2023-03-19T12:17:31;11;9;
30342;PMS5003;17145;49.902;8.680;2023-03-19T12:20:16;14;14;
30342;PMS5003;17145;49.902;8.680;2023-03-19T12:22:57;13;11;
30342;PMS5003;17145;49.902;8.680;2023-03-19T12:25:32;14;13;
30342;PMS5003;17145;49.902;8.680;2023-03-19T12:28:10;11;11;
30342;PMS5003;17145;49.902;8.680;2023-03-19T12:30:46;13;11;
30342;PMS5003;17145;49.902;8.680;2023-03-19T12:33:25;16;15;
30342;PMS5003;17145;49.902;8.680;2023-03-19T12:36:04;12;12;
30342;PMS5003;17145;49.902;8.680;2023-03-19T12:38:38;12;12;
30342;PMS5003;17145;49.902;8.680;2023-03-19T12:41:10;13;12;
30342;PMS5003;17145;49.902;8.680;2023-03-19T12:43:44;11;11;
30342;PMS5003;17145;49.902;8.680;2023-03-19T12:46:19;11;11;
30342;PMS5003;17145;49.902;8.680;2023-03-19T12:48:55;11;11;
30342;PMS5003;17145;49.902;8.680;2023-03-19T12:51:28;11;11;
30342;PMS5003;17145;49.902;8.680;2023-03-19T12:54:02;19;11;
30342;PMS5003;17145;49.902;8.680;2023-03-19T12:56:35;10;10;
30342;PMS5003;17145;49.902;8.680;2023-03-19T12:59:13;11;11;
30342;PMS5003;17145;49.902;8.680;2023-03-19T13:01:49;12;11;
30342;PMS5003;17145;49.902;8.680;2023-03-19T13:04:23;12;11;
30342;PMS5003;17145;49.902;8.680;2023-03-19T13:06:57;18;12;
30342;PMS5003;17145;49.902;8.680;2023-03-19T13:09:29;13;12;
30342;PMS5003;17145;49.902;8.680;2023-03-19T13:12:03;11;11;
30342;PMS5003;17145;49.902;8.680;2023-03-19T13:14:37;12;12;
30342;PMS5003;17145;49.902;8.680;2023-03-19T13:17:17;12;12;
30342;PMS5003;17145;49.902;8.680;2023-03-19T13:19:51;15;13;
30342;PMS5003;17145;49.902;8.680;2023-03-19T13:22:20;11;11;
30342;PMS5003;17145;49.902;8.680;2023-03-19T13:24:51;11;11;
30342;PMS5003;17145;49.902;8.680;2023-03-19T13:27:21;11;10;
30342;PMS5003;17145;49.902;8.680;2023-03-19T13:29:54;16;13;
30342;PMS5003;17145;49.902;8.680;2023-03-19T13:32:28;15;13;
30342;PMS5003;17145;49.902;8.680;2023-03-19T13:35:11;13;12;
30342;PMS5003;17145;49.902;8.680;2023-03-19T13:37:50;13;12;
30342;PMS5003;17145;49.902;8.680;2023-03-19T13:43:09;16;13;
30342;PMS5003;17145;49.902;8.680;2023-03-19T13:45:50;17;12;
30342;PMS5003;17145;49.902;8.680;2023-03-19T13:48:22;12;12;
30342;PMS5003;17145;49.902;8.680;2023-03-19T13:51:00;13;13;
30342;PMS5003;17145;49.902;8.680;2023-03-19T13:53:34;16;16;
30342;PMS5003;17145;49.902;8.680;2023-03-19T13:56:05;18;17;
30342;PMS5003;17145;49.902;8.680;2023-03-19T13:58:44;21;20;
30342;PMS5003;17145;49.902;8.680;2023-03-19T14:04:01;20;18;
30342;PMS5003;17145;49.902;8.680;2023-03-19T14:06:34;21;20;
30342;PMS5003;17145;49.902;8.680;2023-03-19T14:09:04;18;15;
30342;PMS5003;17145;49.902;8.680;2023-03-19T14:11:37;23;21;
30342;PMS5003;17145;49.902;8.680;2023-03-19T14:14:06;18;18;
30342;PMS5003;17145;49.902;8.680;2023-03-19T14:16:41;18;18;
30342;PMS5003;17145;49.902;8.680;2023-03-19T14:19:11;22;21;
30342;PMS5003;17145;49.902;8.680;2023-03-19T14:21:44;22;20;
30342;PMS5003;17145;49.902;8.680;2023-03-19T14:24:20;22;21;
30342;PMS5003;17145;49.902;8.680;2023-03-19T14:26:52;20;20;
30342;PMS5003;17145;49.902;8.680;2023-03-19T14:29:21;21;20;
30342;PMS5003;17145;49.902;8.680;2023-03-19T14:31:51;23;22;
30342;PMS5003;17145;49.902;8.680;2023-03-19T14:34:21;27;27;
30342;PMS5003;17145;49.902;8.680;2023-03-19T14:36:55;21;17;
30342;PMS5003;17145;49.902;8.680;2023-03-19T14:39:27;26;25;
30342;PMS5003;17145;49.902;8.680;2023-03-19T14:41:58;21;20;
30342;PMS5003;17145;49.902;8.680;2023-03-19T14:47:18;27;20;
30342;PMS5003;17145;49.902;8.680;2023-03-19T14:49:54;22;20;
30342;PMS5003;17145;49.902;8.680;2023-03-19T14:52:35;26;24;
30342;PMS5003;17145;49.902;8.680;2023-03-19T14:55:10;27;26;
30342;PMS5003;17145;49.902;8.680;2023-03-19T14:57:39;34;34;
30342;PMS5003;17145;49.902;8.680;2023-03-19T15:00:11;20;19;
30342;PMS5003;17145;49.902;8.680;2023-03-19T15:02:42;21;16;
30342;PMS5003;17145;49.902;8.680;2023-03-19T15:05:14;41;41;
30342;PMS5003;17145;49.902;8.680;2023-03-19T15:07:48;39;38;
30342;PMS5003;17145;49.902;8.680;2023-03-19T15:10:19;31;31;
30342;PMS5003;17145;49.902;8.680;2023-03-19T15:12:57;32;30;
30342;PMS5003;17145;49.902;8.680;2023-03-19T15:15:38;27;26;
30342;PMS5003;17145;49.902;8.680;2023-03-19T15:18:16;16;13;
30342;PMS5003;17145;49.902;8.680;2023-03-19T15:20:44;16;16;
30342;PMS5003;17145;49.902;8.680;2023-03-19T15:23:16;16;13;
30342;PMS5003;17145;49.902;8.680;2023-03-19T15:25:45;13;12;
30342;PMS5003;17145;49.902;8.680;2023-03-19T15:28:15;32;29;
30342;PMS5003;17145;49.902;8.680;2023-03-19T15:30:43;15;12;
30342;PMS5003;17145;49.902;8.680;2023-03-19T15:33:17;19;13;
30342;PMS5003;17145;49.902;8.680;2023-03-19T15:35:45;13;12;
30342;PMS5003;17145;49.902;8.680;2023-03-19T15:38:14;15;12;
30342;PMS5003;17145;49.902;8.680;2023-03-19T15:40:44;12;12;
30342;PMS5003;17145;49.902;8.680;2023-03-19T15:43:12;13;12;
30342;PMS5003;17145;49.902;8.680;2023-03-19T15:45:40;14;14;
30342;PMS5003;17145;49.902;8.680;2023-03-19T15:48:15;15;12;
30342;PMS5003;17145;49.902;8.680;2023-03-19T15:50:47;14;12;
30342;PMS5003;17145;49.902;8.680;2023-03-19T15:53:21;16;14;
30342;PMS5003;17145;49.902;8.680;2023-03-19T15:55:52;10;10;
30342;PMS5003;17145;49.902;8.680;2023-03-19T15:58:22;12;11;
30342;PMS5003;17145;49.902;8.680;2023-03-19T16:00:53;14;12;
30342;PMS5003;17145;49.902;8.680;2023-03-19T16:03:23;15;12;
30342;PMS5003;17145;49.902;8.680;2023-03-19T16:05:57;10;10;
30342;PMS5003;17145;49.902;8.680;2023-03-19T16:08:28;16;15;
30342;PMS5003;17145;49.902;8.680;2023-03-19T16:13:38;15;14;
30342;PMS5003;17145;49.902;8.680;2023-03-19T16:16:13;12;12;
30342;PMS5003;17145;49.902;8.680;2023-03-19T16:18:46;14;12;
30342;PMS5003;17145;49.902;8.680;2023-03-19T16:21:16;14;12;
30342;PMS5003;17145;49.902;8.680;2023-03-19T16:23:49;15;12;
30342;PMS5003;17145;49.902;8.680;2023-03-19T16:26:22;12;12;
30342;PMS5003;17145;49.902;8.680;2023-03-19T16:28:55;14;14;
30342;PMS5003;17145;49.902;8.680;2023-03-19T16:31:29;12;11;
30342;PMS5003;17145;49.902;8.680;2023-03-19T16:33:57;20;12;
30342;PMS5003;17145;49.902;8.680;2023-03-19T16:36:27;12;12;
30342;PMS5003;17145;49.902;8.680;2023-03-19T16:38:57;15;14;
30342;PMS5003;17145;49.902;8.680;2023-03-19T16:41:43;10;10;
30342;PMS5003;17145;49.902;8.680;2023-03-19T16:44:16;17;12;
30342;PMS5003;17145;49.902;8.680;2023-03-19T16:46:44;11;11;
30342;PMS5003;17145;49.902;8.680;2023-03-19T16:49:12;15;12;
30342;PMS5003;17145;49.902;8.680;2023-03-19T16:51:39;12;12;
30342;PMS5003;17145;49.902;8.680;2023-03-19T16:54:08;12;11;
30342;PMS5003;17145;49.902;8.680;2023-03-19T16:56:38;16;14;
30342;PMS5003;17145;49.902;8.680;2023-03-19T16:59:07;15;14;
30342;PMS5003;17145;49.902;8.680;2023-03-19T17:01:38;15;12;
30342;PMS5003;17145;49.902;8.680;2023-03-19T17:04:08;11;11;
30342;PMS5003;17145;49.902;8.680;2023-03-19T17:06:39;14;14;
30342;PMS5003;17145;49.902;8.680;2023-03-19T17:09:06;15;12;
30342;PMS5003;17145;49.902;8.680;2023-03-19T17:11:34;14;12;
30342;PMS5003;17145;49.902;8.680;2023-03-19T17:14:04;14;14;
30342;PMS5003;17145;49.902;8.680;2023-03-19T17:16:33;19;14;